Time;durP1;ratioP1;P1;durP2;ratioP2;P2;SDS_P1;SDS_P2;PMS_P1;PMS_P2;Temp;Humidity;BMP_temperature;BMP_pressure;BME280_temperature;BME280_humidity;BME280_pressure;Samples;Min_cycle;Max_cycle;Signal;HPM_P1;HPM_P2
2022/04/19 00:01:06;;;;;;;2.00;1.90;;;;;;;7.40;56.23;98329.88;4101348;28;20246;-53
2022/04/19 00:03:09;;;;;;;3.38;3.05;;;;;;;7.40;56.53;98335.31;4089168;29;20233;-55
2022/04/19 00:05:11;;;;;;;2.30;2.00;;;;;;;7.42;57.37;98327.75;4084272;29;20232;-54
2022/04/19 00:07:13;;;;;;;2.15;2.05;;;;;;;7.45;56.52;98328.13;4097570;28;20211;-54
2022/04/19 00:09:17;;;;;;;2.47;2.20;;;;;;;7.47;56.74;98336.88;4091338;29;20215;-54
2022/04/19 00:11:18;;;;;;;3.63;1.77;;;;;;;7.42;56.79;98327.75;4091393;29;20781;-54
2022/04/19 00:13:20;;;;;;;2.47;2.28;;;;;;;7.37;57.04;98330.34;4086409;29;20715;-54
2022/04/19 00:15:23;;;;;;;1.92;1.83;;;;;;;7.28;56.80;98326.31;4086051;29;20263;-54
2022/04/19 00:17:25;;;;;;;2.13;1.95;;;;;;;7.23;57.45;98323.47;4086229;28;20702;-54
2022/04/19 00:19:27;;;;;;;2.33;1.45;;;;;;;7.21;57.10;98320.16;4091928;29;20274;-52
2022/04/19 00:21:29;;;;;;;1.90;1.73;;;;;;;7.15;57.45;98318.38;4087730;28;20236;-53
2022/04/19 00:23:30;;;;;;;2.35;2.15;;;;;;;7.07;57.51;98313.25;4113941;28;20287;-52
2022/04/19 00:25:36;;;;;;;2.60;1.88;;;;;;;6.90;57.69;98313.06;4103948;28;20293;-54
2022/04/19 00:27:38;;;;;;;2.50;2.30;;;;;;;6.84;58.14;98313.19;4096848;29;20254;-54
2022/04/19 00:29:41;;;;;;;2.47;1.38;;;;;;;7.04;57.85;98305.56;4095052;28;20199;-54
2022/04/19 00:31:43;;;;;;;1.98;1.73;;;;;;;7.03;57.38;98304.72;4088516;28;20259;-54
2022/04/19 00:33:45;;;;;;;2.00;1.58;;;;;;;7.04;56.67;98302.84;4103126;28;20200;-55
2022/04/19 00:35:47;;;;;;;1.23;1.20;;;;;;;7.01;57.20;98303.28;4106432;28;20320;-54
2022/04/19 00:37:49;;;;;;;1.23;1.23;;;;;;;6.99;57.08;98300.81;4110302;28;20577;-54
2022/04/19 00:39:51;;;;;;;1.60;1.50;;;;;;;6.97;57.45;98299.38;4093322;28;20239;-54
2022/04/19 00:41:55;;;;;;;1.38;1.30;;;;;;;6.93;57.61;98306.34;4093726;28;20211;-55
2022/04/19 00:43:57;;;;;;;1.20;1.20;;;;;;;6.84;57.72;98302.31;4089444;28;20358;-55
2022/04/19 00:45:59;;;;;;;1.50;1.40;;;;;;;6.83;57.63;98298.75;4096655;29;20298;-54
2022/04/19 00:48:01;;;;;;;1.90;1.77;;;;;;;6.81;57.73;98300.03;4097284;29;20624;-54
2022/04/19 00:50:05;;;;;;;1.17;1.17;;;;;;;6.73;57.60;98295.78;4096057;28;20250;-54
2022/04/19 00:52:07;;;;;;;2.60;1.45;;;;;;;6.73;57.81;98300.38;4089475;29;20696;-53
2022/04/19 00:54:09;;;;;;;1.48;1.33;;;;;;;6.67;57.71;98290.41;4088895;29;20239;-53
2022/04/19 00:56:11;;;;;;;2.25;2.15;;;;;;;6.61;58.16;98285.88;4093818;29;20203;-53
2022/04/19 00:58:13;;;;;;;3.97;2.63;;;;;;;6.58;58.25;98280.94;4102237;28;20203;-54
2022/04/19 01:00:15;;;;;;;1.98;1.63;;;;;;;6.61;58.02;98280.44;4088330;28;20597;-54
2022/04/19 01:02:17;;;;;;;1.65;1.42;;;;;;;6.59;58.26;98282.59;4102535;28;20207;-53
2022/04/19 01:04:19;;;;;;;2.00;1.85;;;;;;;6.58;58.35;98283.66;4093730;29;20242;-54
2022/04/19 01:06:20;;;;;;;1.75;1.65;;;;;;;6.53;58.21;98284.34;4090657;28;20267;-54
2022/04/19 01:08:23;;;;;;;1.85;1.75;;;;;;;6.53;58.21;98278.91;4087790;29;20251;-54
2022/04/19 01:10:25;;;;;;;1.38;1.30;;;;;;;6.55;58.56;98281.41;4093169;29;20207;-53
2022/04/19 01:14:48;;;;;;;1.40;1.30;;;;;;;6.55;58.78;98281.41;4087626;29;20228;-54
2022/04/19 01:16:50;;;;;;;1.95;1.70;;;;;;;6.53;58.72;98278.06;4095392;29;20204;-53
2022/04/19 01:18:53;;;;;;;1.17;1.15;;;;;;;6.50;58.45;98281.25;4086653;29;20231;-53
2022/04/19 01:20:55;;;;;;;2.75;1.70;;;;;;;6.45;59.21;98281.09;4089072;29;20215;-53
2022/04/19 01:22:57;;;;;;;1.83;1.73;;;;;;;6.39;59.17;98282.03;4117400;28;20308;-54
2022/04/19 01:24:59;;;;;;;2.00;1.90;;;;;;;6.34;59.07;98268.28;4101598;28;20238;-54
2022/04/19 01:27:00;;;;;;;2.15;1.98;;;;;;;6.33;59.40;98277.50;4120646;28;20617;-55
2022/04/19 01:29:02;;;;;;;2.05;1.92;;;;;;;6.30;59.48;98277.97;4093473;29;20214;-54
2022/04/19 01:31:04;;;;;;;1.60;1.50;;;;;;;6.28;59.69;98264.63;4091212;28;20629;-54
2022/04/19 01:33:06;;;;;;;2.25;2.05;;;;;;;6.27;59.81;98267.53;4099351;28;20606;-55
2022/04/19 01:35:09;;;;;;;2.20;2.08;;;;;;;6.23;59.94;98271.81;4089710;29;20318;-53
2022/04/19 01:37:10;;;;;;;1.27;1.20;;;;;;;6.24;59.77;98268.81;4102477;28;20269;-54
2022/04/19 01:39:12;;;;;;;1.42;1.42;;;;;;;6.17;59.93;98270.81;4101819;28;20227;-53
2022/04/19 01:41:14;;;;;;;1.40;1.30;;;;;;;6.13;59.98;98268.78;4102208;28;20215;-53
2022/04/19 01:43:16;;;;;;;1.58;1.48;;;;;;;6.07;60.11;98261.53;4120455;28;20280;-53
2022/04/19 01:45:25;;;;;;;1.65;1.55;;;;;;;6.06;60.08;98273.47;4094633;28;20239;-53
2022/04/19 01:47:26;;;;;;;1.58;1.38;;;;;;;6.05;60.23;98274.53;4090442;29;20701;-53
2022/04/19 01:49:28;;;;;;;1.70;1.60;;;;;;;6.00;60.43;98271.66;4104335;28;20219;-54
2022/04/19 01:51:30;;;;;;;1.77;1.67;;;;;;;5.99;60.32;98270.00;4092933;28;20773;-53
2022/04/19 01:53:32;;;;;;;1.90;1.80;;;;;;;5.95;60.25;98266.09;4086556;29;20208;-53
2022/04/19 01:55:34;;;;;;;1.85;1.75;;;;;;;5.94;60.20;98262.53;4100990;28;20234;-54
2022/04/19 01:57:36;;;;;;;1.50;1.40;;;;;;;5.95;60.24;98263.38;4090324;28;20270;-53
2022/04/19 01:59:37;;;;;;;1.52;1.42;;;;;;;5.95;60.32;98268.81;4087474;29;20212;-53
2022/04/19 02:01:39;;;;;;;1.67;1.58;;;;;;;5.89;60.84;98262.38;4087894;28;20247;-54
2022/04/19 02:03:41;;;;;;;1.30;1.30;;;;;;;5.88;60.57;98266.16;4093211;28;20238;-52
2022/04/19 02:05:43;;;;;;;1.60;1.50;;;;;;;5.89;60.65;98264.28;4103381;28;20589;-53
2022/04/19 02:07:45;;;;;;;1.73;1.63;;;;;;;5.89;60.66;98258.84;4121057;28;20245;-53
2022/04/19 02:09:47;;;;;;;1.80;1.70;;;;;;;5.85;60.68;98258.47;4117919;28;20206;-53
2022/04/19 02:11:49;;;;;;;1.33;1.30;;;;;;;5.81;60.43;98257.25;4087338;29;20207;-52
2022/04/19 02:13:51;;;;;;;1.88;1.52;;;;;;;5.75;60.84;98262.75;4087820;28;20243;-53
2022/04/19 02:15:53;;;;;;;1.67;1.58;;;;;;;5.67;60.44;98265.72;4119142;28;20222;-53
2022/04/19 02:17:54;;;;;;;1.33;1.30;;;;;;;5.65;60.51;98259.72;4093605;29;20214;-53
2022/04/19 02:20:04;;;;;;;1.60;1.50;;;;;;;5.61;60.78;98263.91;4100558;28;20296;-54
2022/04/19 02:22:06;;;;;;;1.73;1.63;;;;;;;5.55;60.81;98252.09;4094583;29;20239;-54
2022/04/19 02:24:08;;;;;;;1.58;1.45;;;;;;;5.52;61.11;98257.13;4087608;29;20732;-54
2022/04/19 02:26:10;;;;;;;1.50;1.45;;;;;;;5.53;61.07;98247.94;4103150;28;20209;-53
2022/04/19 02:28:12;;;;;;;2.05;1.85;;;;;;;5.55;61.05;98262.13;4117599;28;20227;-54
2022/04/19 02:30:15;;;;;;;2.05;1.95;;;;;;;5.56;60.89;98258.34;4087290;29;20243;-53
2022/04/19 02:32:17;;;;;;;1.88;1.67;;;;;;;5.54;60.96;98255.03;4087443;29;20784;-53
2022/04/19 02:34:19;;;;;;;2.05;1.95;;;;;;;5.54;60.80;98255.84;4104687;28;20207;-54
2022/04/19 02:36:21;;;;;;;1.60;1.50;;;;;;;5.52;61.02;98251.72;4087462;29;20264;-53
2022/04/19 02:38:23;;;;;;;1.80;1.70;;;;;;;5.47;61.35;98252.38;4096166;29;20211;-55
2022/04/19 02:40:26;;;;;;;2.13;2.03;;;;;;;5.41;61.24;98244.28;4088759;28;20222;-54
2022/04/19 02:42:28;;;;;;;2.47;2.28;;;;;;;5.40;61.17;98245.34;4088260;29;20266;-53
2022/04/19 02:44:29;;;;;;;1.48;1.20;;;;;;;5.42;61.14;98251.41;4093184;29;20266;-52
2022/04/19 02:46:33;;;;;;;1.67;1.58;;;;;;;5.35;61.57;98245.22;4087113;29;20207;-52
2022/04/19 02:48:35;;;;;;;1.70;1.60;;;;;;;5.28;61.42;98239.84;4085257;28;20203;-53
2022/04/19 02:50:44;;;;;;;1.38;1.30;;;;;;;5.26;61.42;98241.13;4105551;28;20238;-53
2022/04/19 02:52:46;;;;;;;2.42;1.95;;;;;;;5.22;61.47;98245.34;4092464;29;20226;-52
2022/04/19 02:54:48;;;;;;;1.55;1.45;;;;;;;5.18;61.69;98242.25;4086988;29;20732;-54
2022/04/19 02:56:50;;;;;;;1.75;1.65;;;;;;;5.16;61.72;98243.53;4104188;28;20203;-53
2022/04/19 02:58:52;;;;;;;6.25;1.80;;;;;;;5.18;61.69;98244.13;4119124;28;20207;-53
2022/04/19 03:00:53;;;;;;;2.33;1.70;;;;;;;5.16;61.53;98235.38;4118535;28;20229;-54
2022/04/19 03:02:55;;;;;;;1.73;1.63;;;;;;;5.10;62.04;98241.69;4089997;28;20207;-53
2022/04/19 03:04:57;;;;;;;2.45;2.15;;;;;;;5.08;61.84;98238.34;4076850;29;20267;-53
2022/04/19 03:06:59;;;;;;;1.73;1.63;;;;;;;5.07;61.94;98242.13;4103089;28;20606;-54
2022/04/19 03:09:03;;;;;;;1.50;1.42;;;;;;;5.03;61.71;98241.75;4103955;28;20204;-54
2022/04/19 03:11:05;;;;;;;2.05;1.95;;;;;;;4.97;61.77;98236.38;4119803;28;20221;-53
2022/04/19 03:13:07;;;;;;;2.08;1.98;;;;;;;4.95;62.26;98243.91;4096419;29;20705;-53
2022/04/19 03:15:11;;;;;;;1.70;1.60;;;;;;;4.94;62.23;98241.41;4088776;29;20310;-53
2022/04/19 03:17:13;;;;;;;2.90;1.92;;;;;;;4.92;61.95;98244.34;4078366;29;20231;-54
2022/04/19 03:19:14;;;;;;;1.73;1.63;;;;;;;4.88;62.06;98237.69;4093512;29;20250;-53
2022/04/19 03:21:16;;;;;;;2.35;2.15;;;;;;;4.80;62.26;98235.25;4100828;28;20219;-52
2022/04/19 03:27:58;;;;;;;1.13;1.13;;;;;;;4.86;61.76;98234.38;4086646;29;20200;-54
2022/04/19 03:30:00;;;;;;;2.03;1.92;;;;;;;4.83;62.25;98234.84;4086275;28;20296;-53
2022/04/19 03:32:02;;;;;;;2.15;1.60;;;;;;;4.83;61.98;98234.84;4086578;28;20208;-55
2022/04/19 03:34:04;;;;;;;1.50;1.40;;;;;;;4.78;62.34;98226.53;4085963;29;20287;-53
2022/04/19 03:36:08;;;;;;;1.42;1.33;;;;;;;4.75;62.24;98236.97;4089709;28;20236;-52
2022/04/19 03:38:10;;;;;;;1.75;1.60;;;;;;;4.67;61.97;98235.34;4100154;28;20211;-54
2022/04/19 03:40:12;;;;;;;1.58;1.48;;;;;;;4.64;62.41;98235.81;4102152;28;20555;-54
2022/04/19 03:42:13;;;;;;;2.90;2.30;;;;;;;4.60;62.41;98229.16;4102430;28;20238;-54
2022/04/19 03:44:15;;;;;;;1.40;1.33;;;;;;;4.61;62.45;98230.00;4087906;29;20267;-55
2022/04/19 03:46:19;;;;;;;1.13;1.13;;;;;;;4.54;62.62;98229.22;4120285;28;20692;-54
2022/04/19 03:48:21;;;;;;;2.10;1.85;;;;;;;4.56;62.79;98227.97;4088718;29;20806;-54
2022/04/19 03:50:25;;;;;;;1.58;1.48;;;;;;;4.55;62.84;98231.72;4090165;28;20211;-55
2022/04/19 03:52:27;;;;;;;1.75;1.65;;;;;;;4.56;62.56;98238.78;4102467;28;20223;-54
2022/04/19 03:54:31;;;;;;;1.77;1.67;;;;;;;4.61;62.62;98230.00;4099094;28;20250;-54
2022/04/19 03:56:33;;;;;;;2.03;1.92;;;;;;;4.62;62.67;98227.09;4117172;28;20245;-54
2022/04/19 03:58:35;;;;;;;1.90;1.80;;;;;;;4.63;62.56;98239.56;4102924;28;20247;-54
2022/04/19 04:00:36;;;;;;;1.65;1.55;;;;;;;4.62;62.46;98237.09;4071576;29;20213;-53
2022/04/19 04:02:38;;;;;;;2.28;2.17;;;;;;;4.58;62.28;98230.44;4105868;28;20214;-54
2022/04/19 04:04:40;;;;;;;1.58;1.48;;;;;;;4.54;61.98;98230.03;4106436;28;21178;-52
2022/04/19 04:06:41;;;;;;;1.75;1.45;;;;;;;4.51;62.55;98235.06;4095349;29;20589;-53
2022/04/19 04:08:43;;;;;;;1.90;1.80;;;;;;;4.43;62.56;98233.47;4079915;29;20212;-54
2022/04/19 04:10:45;;;;;;;1.70;1.60;;;;;;;4.43;62.53;98238.88;4089673;29;20709;-53
2022/04/19 04:12:46;;;;;;;1.83;1.73;;;;;;;4.40;62.61;98239.31;4094036;28;20207;-54
2022/04/19 04:14:48;;;;;;;1.55;1.45;;;;;;;4.35;62.58;98239.13;4094216;28;20920;-54
2022/04/19 04:16:50;;;;;;;1.75;1.65;;;;;;;4.33;62.67;98237.69;4090846;29;20211;-53
2022/04/19 04:18:52;;;;;;;2.25;1.70;;;;;;;4.26;62.81;98232.31;4091201;29;20303;-55
2022/04/19 04:20:53;;;;;;;2.17;2.05;;;;;;;4.16;63.46;98234.66;4093009;29;20662;-55
2022/04/19 04:22:55;;;;;;;3.72;1.50;;;;;;;4.24;63.36;98229.00;4093168;29;20285;-54
2022/04/19 04:24:57;;;;;;;1.58;1.48;;;;;;;4.23;63.17;98232.75;4090271;29;20622;-54
2022/04/19 04:26:58;;;;;;;1.55;1.45;;;;;;;4.24;63.07;98239.81;4121710;28;20218;-54
2022/04/19 04:29:00;;;;;;;1.48;1.20;;;;;;;4.26;62.75;98248.56;4102565;28;20343;-53
2022/04/19 04:31:02;;;;;;;1.40;1.30;;;;;;;4.30;62.81;98244.38;4088524;28;20207;-53
2022/04/19 04:33:04;;;;;;;1.45;1.35;;;;;;;4.30;63.29;98246.25;4103169;28;20211;-54
2022/04/19 04:35:07;;;;;;;1.45;1.35;;;;;;;4.31;62.84;98245.19;4092421;29;20393;-55
2022/04/19 04:37:08;;;;;;;2.38;2.17;;;;;;;4.27;63.08;98249.41;4086920;29;20258;-53
2022/04/19 04:39:10;;;;;;;1.75;1.65;;;;;;;4.25;63.26;98246.91;4088657;29;20227;-54
2022/04/19 04:41:12;;;;;;;1.65;1.55;;;;;;;4.16;63.10;98242.78;4089856;28;20230;-54
2022/04/19 04:43:13;;;;;;;1.98;1.88;;;;;;;4.18;62.94;98242.56;4090227;29;20215;-54
2022/04/19 04:45:15;;;;;;;1.50;1.40;;;;;;;4.11;63.23;98249.88;4117017;28;20246;-55
2022/04/19 04:49:51;;;;;;;4.88;1.73;;;;;;;4.06;63.28;98247.81;4082170;29;20246;-55
2022/04/19 04:51:52;;;;;;;1.52;1.42;;;;;;;4.07;63.68;98249.47;4119258;28;20214;-55
2022/04/19 04:53:54;;;;;;;3.22;2.22;;;;;;;4.09;63.40;98250.13;4089574;29;20259;-54
2022/04/19 04:55:56;;;;;;;1.83;1.70;;;;;;;4.12;63.48;98244.25;4088198;29;20286;-53
2022/04/19 04:58:01;;;;;;;1.52;1.42;;;;;;;4.09;63.71;98249.28;4088096;29;20203;-54
2022/04/19 05:00:04;;;;;;;1.55;1.45;;;;;;;4.07;63.59;98244.06;4102903;28;20908;-54
2022/04/19 05:02:08;;;;;;;2.13;1.95;;;;;;;4.00;64.14;98243.28;4089307;28;20215;-54
2022/04/19 05:04:10;;;;;;;1.75;1.65;;;;;;;4.01;63.97;98244.13;4098623;28;20651;-54
2022/04/19 05:06:12;;;;;;;1.70;1.60;;;;;;;4.01;63.94;98247.63;4116508;28;20701;-54
2022/04/19 05:08:17;;;;;;;1.83;1.67;;;;;;;3.99;64.17;98238.91;4090415;29;20630;-54
2022/04/19 05:10:18;;;;;;;4.53;1.83;;;;;;;4.01;63.90;98247.63;4100414;28;22632;-55
2022/04/19 05:12:20;;;;;;;1.92;1.63;;;;;;;4.03;64.43;98247.44;4091624;29;20256;-55
2022/04/19 05:14:22;;;;;;;2.55;2.35;;;;;;;4.01;64.06;98244.13;4101508;28;20218;-54
2022/04/19 05:16:24;;;;;;;1.20;1.20;;;;;;;4.06;64.14;98247.81;4086949;29;20726;-53
2022/04/19 05:18:26;;;;;;;2.65;2.40;;;;;;;4.07;64.31;98254.91;4087696;28;20216;-54
2022/04/19 05:20:27;;;;;;;1.95;1.85;;;;;;;4.08;64.24;98253.84;4118467;28;20222;-54
2022/04/19 05:22:29;;;;;;;2.67;1.60;;;;;;;4.08;64.20;98255.75;4101555;28;20211;-53
2022/04/19 05:24:31;;;;;;;1.90;1.80;;;;;;;4.14;63.94;98255.69;4089428;29;20351;-53
2022/04/19 05:26:33;;;;;;;1.98;1.85;;;;;;;4.20;63.86;98256.72;4091567;29;20381;-54
2022/04/19 05:28:34;;;;;;;2.17;2.08;;;;;;;4.28;64.11;98262.69;4090486;29;20216;-54
2022/04/19 05:30:36;;;;;;;1.55;1.50;;;;;;;4.43;64.56;98255.13;4086727;29;20219;-55
2022/04/19 05:32:38;;;;;;;3.33;2.47;;;;;;;4.60;63.94;98256.25;4101797;28;20249;-54
2022/04/19 05:34:41;;;;;;;1.65;1.55;;;;;;;4.76;63.25;98253.03;4088575;28;20227;-54
2022/04/19 05:36:43;;;;;;;2.25;2.15;;;;;;;4.99;64.33;98257.88;4097326;28;20207;-54
2022/04/19 05:38:45;;;;;;;2.10;2.00;;;;;;;5.19;64.09;98253.91;4083195;28;20216;-53
2022/04/19 05:40:47;;;;;;;2.03;1.92;;;;;;;5.42;63.35;98267.69;4101335;28;20302;-54
2022/04/19 05:42:49;;;;;;;2.20;2.10;;;;;;;5.49;62.99;98268.44;4101174;28;20213;-53
2022/04/19 05:44:50;;;;;;;1.98;1.88;;;;;;;5.64;62.74;98260.78;4103441;28;20230;-54
2022/04/19 05:46:52;;;;;;;2.40;2.30;;;;;;;5.68;62.70;98264.66;4103752;28;20658;-53
2022/04/19 05:48:54;;;;;;;1.77;1.67;;;;;;;5.82;63.02;98260.81;4102557;28;20590;-53
2022/04/19 05:50:56;;;;;;;1.67;1.60;;;;;;;5.88;62.53;98262.63;4086267;29;20260;-55
2022/04/19 05:52:58;;;;;;;2.22;1.92;;;;;;;6.00;63.00;98267.06;4088003;28;20207;-55
2022/04/19 05:54:59;;;;;;;1.95;1.85;;;;;;;6.26;62.87;98276.75;4091586;28;20220;-55
2022/04/19 05:57:01;;;;;;;1.88;1.77;;;;;;;6.54;62.47;98274.28;4102832;28;20214;-55
2022/04/19 05:59:03;;;;;;;2.08;1.98;;;;;;;6.81;61.63;98264.69;4089767;29;20263;-53
2022/04/19 06:01:06;;;;;;;1.88;1.77;;;;;;;7.08;61.67;98266.75;4087258;28;20215;-54
2022/04/19 06:05:28;;;;;;;2.00;1.90;;;;;;;7.33;60.03;98274.72;4087968;29;20285;-53
2022/04/19 06:07:30;;;;;;;1.20;1.20;;;;;;;7.05;60.19;98271.84;4089876;29;20208;-53
2022/04/19 06:09:32;;;;;;;3.17;2.00;;;;;;;7.13;60.50;98275.06;4101950;28;20213;-53
2022/04/19 06:11:34;;;;;;;1.60;1.50;;;;;;;7.45;60.33;98264.66;4091935;29;20212;-54
2022/04/19 06:13:42;;;;;;;1.42;1.40;;;;;;;7.55;59.82;98257.56;4102164;28;20238;-55
2022/04/19 06:15:49;;;;;;;1.88;1.77;;;;;;;7.10;58.98;98269.25;4087955;29;20313;-53
2022/04/19 06:17:50;;;;;;;2.72;2.15;;;;;;;7.34;60.37;98262.75;4088291;29;20251;-53
2022/04/19 06:19:52;;;;;;;1.80;1.70;;;;;;;7.46;60.23;98263.59;4092098;29;20212;-54
2022/04/19 06:22:00;;;;;;;2.20;1.55;;;;;;;7.18;59.27;98271.63;4086780;29;20207;-58
2022/04/19 06:24:04;;;;;;;3.75;2.92;;;;;;;7.63;59.45;98275.44;4116223;28;20237;-54
2022/04/19 06:26:05;;;;;;;14.02;2.03;;;;;;;7.97;59.43;98267.25;4116507;28;20230;-54
2022/04/19 06:28:07;;;;;;;2.63;1.75;;;;;;;7.98;58.70;98268.06;4101377;28;20255;-54
2022/04/19 06:30:10;;;;;;;3.75;2.92;;;;;;;8.23;59.22;98266.72;4098519;28;20210;-54
2022/04/19 06:32:13;;;;;;;1.83;1.73;;;;;;;8.34;57.57;98267.78;4085472;28;20221;-53
2022/04/19 06:34:16;;;;;;;2.20;2.10;;;;;;;8.16;58.09;98267.91;4093258;28;20298;-54
2022/04/19 06:36:22;;;;;;;1.50;1.40;;;;;;;8.15;57.85;98266.28;4102072;28;20243;-53
2022/04/19 06:38:24;;;;;;;2.17;2.08;;;;;;;8.55;58.68;98269.84;4089533;29;20318;-54
2022/04/19 06:40:25;;;;;;;1.65;1.55;;;;;;;9.01;57.42;98270.44;4087763;28;20211;-54
2022/04/19 06:42:28;;;;;;;1.77;1.67;;;;;;;9.23;56.86;98267.81;4093729;29;20211;-53
2022/04/19 06:44:29;;;;;;;1.60;1.50;;;;;;;9.10;55.96;98273.59;4096915;28;20282;-54
2022/04/19 06:46:31;;;;;;;1.42;1.27;;;;;;;9.17;54.15;98264.19;4091875;29;20577;-55
2022/04/19 06:48:34;;;;;;;1.65;1.55;;;;;;;9.16;54.28;98261.69;4089367;29;20638;-54
2022/04/19 06:50:39;;;;;;;1.40;1.35;;;;;;;9.49;55.67;98265.22;4120450;28;20206;-54
2022/04/19 06:52:41;;;;;;;1.50;1.40;;;;;;;9.29;53.53;98264.09;4117812;28;20219;-53
2022/04/19 06:54:42;;;;;;;1.60;1.50;;;;;;;10.08;54.28;98266.44;4087351;28;20818;-54
2022/04/19 06:56:47;;;;;;;1.70;1.60;;;;;;;10.06;53.23;98257.63;4116524;28;20303;-54
2022/04/19 06:58:49;;;;;;;1.48;1.38;;;;;;;10.98;52.21;98266.41;4084599;28;20294;-53
2022/04/19 07:00:50;;;;;;;1.42;1.33;;;;;;;10.59;50.69;98263.22;4100191;28;20261;-55
2022/04/19 07:02:52;;;;;;;1.63;1.50;;;;;;;10.00;50.90;98264.06;4088828;29;20239;-53
2022/04/19 07:04:54;;;;;;;1.10;1.10;;;;;;;10.69;51.61;98268.81;4096180;28;20241;-54
2022/04/19 07:06:56;;;;;;;11.07;1.45;;;;;;;11.74;50.68;98257.78;4087871;28;20207;-54
2022/04/19 07:08:58;;;;;;;0.93;0.93;;;;;;;11.72;50.89;98259.94;4103255;28;20265;-51
2022/04/19 07:11:03;;;;;;;1.27;1.17;;;;;;;12.30;49.12;98257.00;4087380;28;20728;-53
2022/04/19 07:13:06;;;;;;;1.02;1.00;;;;;;;12.52;49.42;98249.44;4115695;28;20638;-53
2022/04/19 07:15:08;;;;;;;1.35;1.25;;;;;;;12.92;48.58;98255.03;4088917;28;20318;-54
2022/04/19 07:17:13;;;;;;;2.90;1.40;;;;;;;12.96;48.34;98256.16;4086193;29;20255;-52
2022/04/19 07:19:15;;;;;;;0.98;0.98;;;;;;;13.31;47.33;98258.13;4085738;29;20215;-52
2022/04/19 07:26:37;;;;;;;1.00;1.00;;;;;;;14.39;44.84;98252.81;4085430;29;20501;-53
2022/04/19 07:26:49;;;;;;;0.90;0.90;;;;;;;14.49;45.09;98261.00;4088285;28;20296;-52
2022/04/19 07:28:50;;;;;;;0.80;0.80;;;;;;;14.85;44.13;98262.50;4102677;28;20214;-52
2022/04/19 07:30:52;;;;;;;0.80;0.80;;;;;;;14.56;44.40;98261.53;4091859;29;20559;-52
2022/04/19 07:32:55;;;;;;;1.00;1.00;;;;;;;14.51;42.78;98258.78;4087369;29;20244;-57
2022/04/19 07:34:57;;;;;;;0.85;0.80;;;;;;;14.78;43.37;98259.25;4105911;28;20219;-53
2022/04/19 07:36:59;;;;;;;1.25;0.90;;;;;;;14.64;44.22;98257.38;4104153;28;20211;-53
2022/04/19 07:39:03;;;;;;;0.90;0.80;;;;;;;15.16;43.15;98250.19;4124506;28;20209;-53
2022/04/19 07:41:06;;;;;;;1.70;1.60;;;;;;;15.00;43.94;98245.88;4079692;29;20285;-52
2022/04/19 07:43:08;;;;;;;0.82;0.82;;;;;;;14.77;43.81;98254.00;4092821;29;20741;-52
2022/04/19 07:45:11;;;;;;;1.88;1.08;;;;;;;15.53;43.31;98253.25;4102750;28;20742;-54
2022/04/19 07:47:14;;;;;;;1.00;1.00;;;;;;;15.84;42.27;98251.06;4094226;28;20203;-54
2022/04/19 07:49:16;;;;;;;0.80;0.80;;;;;;;15.47;42.35;98251.66;4105040;28;20272;-53
2022/04/19 07:51:18;;;;;;;0.90;0.90;;;;;;;15.89;41.80;98249.06;4098240;29;21076;-54
2022/04/19 07:53:20;;;;;;;1.10;0.80;;;;;;;15.57;40.07;98248.78;4107052;28;21134;-52
2022/04/19 07:55:23;;;;;;;0.70;0.70;;;;;;;15.83;41.35;98243.91;4090482;28;20231;-53
2022/04/19 07:57:25;;;;;;;1.00;0.90;;;;;;;16.38;40.87;98241.41;4106174;28;20230;-51
2022/04/19 07:59:27;;;;;;;0.73;0.68;;;;;;;16.34;41.14;98243.06;4093175;28;20218;-51
2022/04/19 08:01:29;;;;;;;2.22;1.05;;;;;;;16.80;40.67;98237.81;4120832;28;20668;-51
2022/04/19 08:03:31;;;;;;;0.77;0.77;;;;;;;16.50;41.05;98239.03;4105649;28;20641;-55
2022/04/19 08:05:33;;;;;;;0.93;0.80;;;;;;;17.13;40.73;98235.69;4095973;29;20219;-51
2022/04/19 08:07:35;;;;;;;1.00;0.98;;;;;;;17.72;39.82;98240.59;4092112;29;20223;-51
2022/04/19 08:09:37;;;;;;;0.70;0.70;;;;;;;17.70;38.94;98240.06;4119304;28;20261;-52
2022/04/19 08:11:48;;;;;;;1.17;0.80;;;;;;;17.69;39.19;98238.44;4093950;29;20215;-50
2022/04/19 08:13:50;;;;;;;0.80;0.80;;;;;;;17.87;38.95;98237.56;4105848;28;20208;-51
2022/04/19 08:15:52;;;;;;;0.60;0.60;;;;;;;17.75;39.14;98234.44;4091079;29;20223;-51
2022/04/19 08:17:55;;;;;;;0.68;0.68;;;;;;;17.71;39.75;98238.97;4102731;28;20208;-52
2022/04/19 08:19:57;;;;;;;2.00;0.82;;;;;;;18.40;38.91;98224.97;4105701;28;20242;-51
2022/04/19 08:21:59;;;;;;;0.90;0.85;;;;;;;17.65;38.38;98229.09;4104316;28;20217;-51
2022/04/19 08:24:01;;;;;;;0.57;0.57;;;;;;;17.77;38.92;98227.50;4105171;28;20202;-51
2022/04/19 08:26:03;;;;;;;1.75;0.60;;;;;;;17.29;38.15;98225.22;4104215;28;20230;-51
2022/04/19 08:28:05;;;;;;;0.57;0.57;;;;;;;17.91;39.13;98222.00;4090174;29;20215;-51
2022/04/19 08:30:08;;;;;;;0.82;0.82;;;;;;;18.25;38.82;98220.50;4104945;28;20298;-51
2022/04/19 08:32:10;;;;;;;0.70;0.57;;;;;;;17.97;39.36;98221.59;4107154;28;20214;-53
2022/04/19 08:34:13;;;;;;;1.20;0.70;;;;;;;18.13;38.68;98222.94;4109489;28;20249;-50
2022/04/19 08:36:15;;;;;;;1.75;0.75;;;;;;;18.72;38.19;98217.34;4103338;28;20673;-51
2022/04/19 08:38:19;;;;;;;1.38;0.70;;;;;;;19.15;38.03;98220.56;4102170;28;20226;-51
2022/04/19 08:40:20;;;;;;;1.13;1.02;;;;;;;18.68;38.17;98219.09;4087301;29;20219;-52
2022/04/19 08:42:22;;;;;;;0.77;0.70;;;;;;;17.71;38.28;98211.28;4102333;28;20550;-51
2022/04/19 08:44:25;;;;;;;0.70;0.70;;;;;;;17.48;37.42;98212.22;4101072;28;20231;-51
2022/04/19 08:46:27;;;;;;;2.60;0.90;;;;;;;17.82;38.28;98212.72;4104373;28;20230;-50
2022/04/19 08:48:31;;;;;;;2.08;1.00;;;;;;;18.22;37.86;98200.91;4090872;28;20235;-51
2022/04/19 08:50:33;;;;;;;1.38;1.00;;;;;;;17.87;36.32;98207.13;4088426;28;20212;-51
2022/04/19 08:52:35;;;;;;;1.05;0.70;;;;;;;18.33;37.68;98207.94;4092763;28;20811;-51
2022/04/19 08:59:29;;;;;;;0.85;0.80;;;;;;;19.30;36.80;98201.63;4090508;29;20207;-51
2022/04/19 09:01:30;;;;;;;1.33;1.20;;;;;;;19.31;36.50;98211.59;4102627;28;20214;-51
2022/04/19 09:03:34;;;;;;;1.17;1.08;;;;;;;19.25;36.27;98209.28;4093231;28;20235;-51
2022/04/19 09:05:51;;;;;;;0.80;0.80;;;;;;;18.51;36.15;98209.78;4106992;28;20235;-50
2022/04/19 09:07:55;;;;;;;0.60;0.60;;;;;;;18.29;37.31;98204.09;4107945;28;20657;-50
2022/04/19 09:09:59;;;;;;;1.00;0.90;;;;;;;18.12;37.13;98201.13;4122897;28;20206;-51
2022/04/19 09:12:12;;;;;;;0.85;0.80;;;;;;;18.15;38.06;98206.03;4090680;28;20243;-50
2022/04/19 09:14:14;;;;;;;0.70;0.70;;;;;;;18.05;37.77;98203.47;4119297;28;20677;-50
2022/04/19 09:16:16;;;;;;;1.05;0.95;;;;;;;18.62;37.22;98205.66;4093503;29;20709;-52
2022/04/19 09:18:26;;;;;;;1.25;1.00;;;;;;;19.51;37.33;98207.53;4087957;29;20899;-52
2022/04/19 09:20:28;;;;;;;0.60;0.60;;;;;;;19.79;36.40;98192.38;4089200;29;20670;-50
2022/04/19 09:22:30;;;;;;;0.73;0.60;;;;;;;20.37;35.95;98196.63;4085195;29;20286;-52
2022/04/19 09:24:34;;;;;;;1.08;0.80;;;;;;;20.42;35.07;98195.66;4099028;28;20235;-52
2022/04/19 09:26:50;;;;;;;0.85;0.75;;;;;;;19.88;36.68;98191.28;4093829;28;20227;-52
2022/04/19 09:29:26;;;;;;;0.80;0.60;;;;;;;20.81;35.63;98187.25;4117668;28;20828;-50
2022/04/19 09:31:30;;;;;;;1.00;0.80;;;;;;;20.71;34.51;98187.59;4091186;29;20204;-50
2022/04/19 09:33:32;;;;;;;0.93;0.82;;;;;;;20.70;35.45;98186.75;4087630;29;20212;-51
2022/04/19 09:35:44;;;;;;;1.10;0.80;;;;;;;20.79;34.95;98184.00;4089221;29;20318;-52
2022/04/19 09:37:49;;;;;;;0.90;0.80;;;;;;;21.29;34.04;98176.88;4104014;28;20207;-50
2022/04/19 09:39:52;;;;;;;0.95;0.82;;;;;;;20.57;33.55;98175.78;4087873;28;20226;-51
2022/04/19 09:42:05;;;;;;;1.25;0.80;;;;;;;19.80;33.90;98171.78;4089775;29;20211;-51
2022/04/19 09:44:08;;;;;;;0.80;0.80;;;;;;;19.75;35.56;98171.91;4117762;28;20657;-50
2022/04/19 09:46:14;;;;;;;0.60;0.60;;;;;;;20.69;35.84;98174.00;4091160;28;20231;-51
2022/04/19 09:48:17;;;;;;;1.52;1.00;;;;;;;21.16;35.34;98161.16;4085516;28;20211;-51
2022/04/19 09:50:19;;;;;;;0.90;0.90;;;;;;;21.78;33.49;98168.84;4115696;28;20380;-52
2022/04/19 09:52:20;;;;;;;2.15;0.93;;;;;;;21.04;31.73;98161.00;4100204;28;20386;-51
2022/04/19 09:54:22;;;;;;;4.78;2.05;;;;;;;20.23;33.61;98158.94;4087198;28;20245;-51
2022/04/19 09:56:34;;;;;;;0.85;0.63;;;;;;;20.70;34.20;98158.94;4099523;28;20297;-50
2022/04/19 09:58:51;;;;;;;1.38;0.80;;;;;;;20.74;34.33;98156.34;4087803;29;20724;-50
2022/04/19 10:00:53;;;;;;;0.63;0.63;;;;;;;20.98;33.99;98148.38;4082293;28;20230;-50
2022/04/19 10:09:56;;;;;;;0.95;0.60;;;;;;;21.77;32.71;98144.09;4083531;28;20239;-50